CheckWX is a tool to help pilots better visualize weather data.  It is not intended as a substitute for an official pre-flight weather briefing.

17:30:43 UTC

FQMA TAF
Maputo Airport
Maputo, Mozambique
TAF FQMA 241000Z 2412/2518 17012KT 9999 SCT020 TX32/2413Z TN23/2503Z BECMG 2418/2420 03010KT BECMG 2500/2502 33008KT BECMG 2512/2514 04012KT

Mar-24@
12:00 UTC

Mar-24 @ 12:00 UTC

Mar-24@
18:00 UTC

Mar-24 @ 18:00 UTC

TAF FQMA 241000Z 2412/2518 17012KT 9999 SCT020 TX32/2413Z TN23/2503Z
Wind
  • 170° at 12 KTS
Cloud Levels
  • Scattered at 2,000' AGL

Mar-24@
18:00 UTC

Mar-24 @ 18:00 UTC

Mar-25@
00:00 UTC

Mar-25 @ 00:00 UTC

BECMG 2418/2420 03010KT

Becoming

Becoming Conditions expected by Sun, Mar 24, 2019 @ 20:00 UTC

Wind
  • 030° at 10 KTS
Cloud Levels
  • Scattered at 2,000' AGL

Mar-25@
00:00 UTC

Mar-25 @ 00:00 UTC

Mar-25@
12:00 UTC

Mar-25 @ 12:00 UTC

BECMG 2500/2502 33008KT

Becoming

Becoming Conditions expected by Mon, Mar 25, 2019 @ 02:00 UTC

Wind
  • 330° at 8 KTS
Cloud Levels
  • Scattered at 2,000' AGL

Mar-25@
12:00 UTC

Mar-25 @ 12:00 UTC

Mar-25@
18:00 UTC

Mar-25 @ 18:00 UTC

BECMG 2512/2514 04012KT

Becoming

Becoming Conditions expected by Mon, Mar 25, 2019 @ 14:00 UTC

Wind
  • 040° at 12 KTS
Cloud Levels
  • Scattered at 2,000' AGL